createdAt,value
2023-02-11T00:01:03.275Z,9.48
2023-02-11T00:03:30.520Z,9.30
2023-02-11T00:05:57.793Z,8.82
2023-02-11T00:08:25.062Z,8.43
2023-02-11T00:10:52.397Z,8.80
2023-02-11T00:13:19.875Z,8.25
2023-02-11T00:15:47.147Z,8.50
2023-02-11T00:18:14.439Z,8.77
2023-02-11T00:20:41.672Z,8.32
2023-02-11T00:23:08.953Z,8.43
2023-02-11T00:25:37.460Z,8.32
2023-02-11T00:28:04.797Z,8.00
2023-02-11T00:30:32.043Z,8.02
2023-02-11T00:32:59.771Z,7.72
2023-02-11T00:35:26.994Z,8.05
2023-02-11T00:37:54.253Z,7.22
2023-02-11T00:40:21.472Z,7.70
2023-02-11T00:42:48.719Z,7.97
2023-02-11T00:45:15.955Z,7.32
2023-02-11T00:47:43.204Z,7.75
2023-02-11T00:50:10.477Z,7.93
2023-02-11T00:52:37.793Z,8.82
2023-02-11T00:55:04.981Z,7.38
2023-02-11T00:57:32.967Z,7.43
2023-02-11T01:00:00.185Z,7.20
2023-02-11T01:02:27.521Z,7.45
2023-02-11T01:04:54.837Z,9.10
2023-02-11T01:07:22.122Z,7.82
2023-02-11T01:09:49.272Z,7.40
2023-02-11T01:12:16.581Z,8.07
2023-02-11T01:14:43.774Z,9.13
2023-02-11T01:17:11.327Z,9.02
2023-02-11T01:19:38.533Z,9.68
2023-02-11T01:22:07.202Z,10.10
2023-02-11T01:24:34.463Z,10.23
2023-02-11T01:27:01.723Z,10.90
2023-02-11T01:29:28.982Z,11.52
2023-02-11T01:31:56.291Z,11.90
2023-02-11T01:34:26.332Z,11.40
2023-02-11T01:36:53.576Z,11.73
2023-02-11T01:39:21.387Z,14.73
2023-02-11T01:41:48.646Z,11.90
2023-02-11T01:44:15.872Z,14.13
2023-02-11T01:46:43.176Z,13.43
2023-02-11T01:49:11.404Z,11.82
2023-02-11T01:51:38.826Z,14.00
2023-02-11T01:54:24.714Z,12.32
2023-02-11T01:57:11.443Z,12.85
2023-02-11T01:59:38.940Z,10.25
2023-02-11T02:02:06.303Z,12.50
2023-02-11T02:04:33.614Z,12.77
2023-02-11T02:07:00.845Z,12.30
2023-02-11T02:09:28.437Z,12.60
2023-02-11T02:11:55.629Z,12.15
2023-02-11T02:14:22.941Z,11.38
2023-02-11T02:16:50.128Z,12.38
2023-02-11T02:19:17.380Z,12.73
2023-02-11T02:21:44.609Z,15.00
2023-02-11T02:24:14.175Z,13.23
2023-02-11T02:26:41.566Z,12.52
2023-02-11T02:29:08.813Z,12.82
2023-02-11T02:31:36.108Z,11.50
2023-02-11T02:34:03.331Z,12.32
2023-02-11T02:36:30.808Z,11.50
2023-02-11T02:38:58.070Z,12.88
2023-02-11T02:41:25.338Z,11.25
2023-02-11T02:43:52.521Z,10.93
2023-02-11T02:46:19.726Z,12.00
2023-02-11T02:48:46.896Z,12.73
2023-02-11T02:51:14.171Z,13.02
2023-02-11T02:53:41.348Z,13.13
2023-02-11T02:56:08.634Z,12.75
2023-02-11T02:58:35.878Z,11.80
2023-02-11T03:01:03.165Z,12.07
2023-02-11T03:03:30.473Z,12.57
2023-02-11T03:05:57.765Z,12.82
2023-02-11T03:08:25.011Z,12.95
2023-02-11T03:10:52.258Z,13.65
2023-02-11T03:13:19.497Z,12.65
2023-02-11T03:15:46.809Z,11.77
2023-02-11T03:18:14.007Z,12.32
2023-02-11T03:20:41.244Z,12.00
2023-02-11T03:23:08.468Z,11.93
2023-02-11T03:25:35.720Z,13.50
2023-02-11T03:28:02.943Z,13.25
2023-02-11T03:30:30.207Z,12.38
2023-02-11T03:32:57.415Z,12.90
2023-02-11T03:35:24.723Z,12.93
2023-02-11T03:37:51.919Z,13.45
2023-02-11T03:40:19.193Z,13.85
2023-02-11T03:42:46.457Z,10.93
2023-02-11T03:45:13.701Z,13.18
2023-02-11T03:47:40.879Z,13.45
2023-02-11T03:50:08.112Z,13.88
2023-02-11T03:52:35.447Z,12.00
2023-02-11T03:55:02.699Z,14.73
2023-02-11T03:57:29.947Z,13.68
2023-02-11T03:59:57.226Z,13.48
2023-02-11T04:02:24.429Z,11.57
2023-02-11T04:04:51.727Z,13.40
2023-02-11T04:07:18.908Z,12.30
2023-02-11T04:09:46.204Z,13.20
2023-02-11T04:12:13.430Z,12.43
2023-02-11T04:14:40.772Z,13.90
2023-02-11T04:17:08.010Z,13.25
2023-02-11T04:19:35.275Z,12.77
2023-02-11T04:22:02.522Z,13.40
2023-02-11T04:24:29.838Z,12.13
2023-02-11T04:26:57.094Z,13.18
2023-02-11T04:29:24.359Z,13.13
2023-02-11T04:31:51.641Z,14.60
2023-02-11T04:34:18.976Z,12.73
2023-02-11T04:36:46.127Z,12.40
2023-02-11T04:39:13.334Z,11.95
2023-02-11T04:41:40.510Z,11.35
2023-02-11T04:44:07.747Z,12.25
2023-02-11T04:46:34.939Z,11.85
2023-02-11T04:49:02.236Z,12.07
2023-02-11T04:51:29.413Z,12.32
2023-02-11T04:53:56.683Z,11.50
2023-02-11T04:56:23.933Z,12.50
2023-02-11T04:58:51.166Z,11.20
2023-02-11T05:01:18.428Z,11.30
2023-02-11T05:03:45.844Z,12.65
2023-02-11T05:06:13.065Z,12.23
2023-02-11T05:08:40.316Z,10.77
2023-02-11T05:11:07.662Z,10.93
2023-02-11T05:13:34.955Z,11.40
2023-02-11T05:16:02.182Z,9.93
2023-02-11T05:18:29.483Z,9.48
2023-02-11T05:20:56.738Z,10.80
2023-02-11T05:23:23.972Z,9.35
2023-02-11T05:25:51.506Z,9.68
2023-02-11T05:28:18.919Z,9.77
2023-02-11T05:30:46.218Z,8.45
2023-02-11T05:33:13.819Z,8.77
2023-02-11T05:35:42.020Z,9.40
2023-02-11T05:38:09.291Z,8.77
2023-02-11T05:40:36.499Z,8.38
2023-02-11T05:43:06.404Z,9.10
2023-02-11T05:45:37.275Z,9.90
2023-02-11T05:48:04.717Z,7.07
2023-02-11T05:50:32.999Z,8.80
2023-02-11T05:53:00.947Z,8.75
2023-02-11T05:55:28.304Z,8.57
2023-02-11T05:58:01.888Z,7.60
2023-02-11T06:00:29.172Z,6.75
2023-02-11T06:02:57.722Z,8.48
2023-02-11T06:05:25.147Z,7.20
2023-02-11T06:07:53.166Z,7.10
2023-02-11T06:10:20.432Z,6.82
2023-02-11T06:12:50.384Z,7.43
2023-02-11T06:15:19.882Z,7.45
2023-02-11T06:17:48.741Z,6.05
2023-02-11T06:20:18.962Z,5.47
2023-02-11T06:22:51.310Z,5.85
2023-02-11T06:25:18.597Z,6.07
2023-02-11T06:27:45.864Z,6.40
2023-02-11T06:30:19.003Z,6.28
2023-02-11T06:32:49.015Z,6.80
2023-02-11T06:35:17.536Z,7.10
2023-02-11T06:40:35.046Z,5.88
2023-02-11T06:43:06.202Z,5.53
2023-02-11T06:45:35.557Z,6.22
2023-02-11T06:48:02.872Z,7.15
2023-02-11T06:50:30.116Z,5.97
2023-02-11T06:53:02.843Z,6.25
2023-02-11T06:55:31.200Z,5.20
2023-02-11T06:58:03.919Z,5.53
2023-02-11T07:00:32.256Z,5.80
2023-02-11T07:02:59.531Z,6.28
2023-02-11T07:05:27.028Z,5.72
2023-02-11T07:07:54.209Z,5.00
2023-02-11T07:10:21.702Z,6.68
2023-02-11T07:12:48.928Z,7.05
2023-02-11T07:15:17.663Z,6.38
2023-02-11T07:17:44.860Z,6.22
2023-02-11T07:20:15.696Z,6.20
2023-02-11T07:22:43.044Z,6.13
2023-02-11T07:25:10.290Z,6.03
2023-02-11T07:27:37.672Z,6.30
2023-02-11T07:30:07.465Z,5.53
2023-02-11T07:32:35.019Z,6.78
2023-02-11T07:35:02.329Z,5.55
2023-02-11T07:37:30.531Z,4.85
2023-02-11T07:39:59.595Z,5.60
2023-02-11T07:42:28.844Z,5.32
2023-02-11T07:44:57.566Z,5.13
2023-02-11T07:47:33.060Z,4.05
2023-02-11T07:50:06.915Z,5.53
2023-02-11T07:52:35.649Z,5.03
2023-02-11T07:55:05.029Z,5.57
2023-02-11T07:57:33.139Z,5.57
2023-02-11T08:00:00.410Z,4.28
2023-02-11T08:02:27.766Z,4.40
2023-02-11T08:04:55.132Z,3.65
2023-02-11T08:07:25.712Z,3.70
2023-02-11T08:09:57.344Z,3.40
2023-02-11T08:12:24.644Z,3.53
2023-02-11T08:14:55.858Z,3.47
2023-02-11T08:17:23.120Z,3.30
2023-02-11T08:19:50.364Z,3.38
2023-02-11T08:22:17.623Z,2.55
2023-02-11T08:24:44.827Z,2.50
2023-02-11T08:27:15.179Z,2.97
2023-02-11T08:29:42.864Z,2.85
2023-02-11T08:32:10.160Z,2.60
2023-02-11T08:34:37.860Z,2.80
2023-02-11T08:37:06.527Z,2.65
2023-02-11T08:39:36.607Z,3.20
2023-02-11T08:42:04.030Z,2.30
2023-02-11T08:44:31.571Z,2.28
2023-02-11T08:46:58.934Z,2.42
2023-02-11T08:49:27.232Z,2.50
2023-02-11T08:51:56.208Z,2.63
2023-02-11T08:54:23.383Z,2.60
2023-02-11T08:56:50.680Z,2.15
2023-02-11T08:59:19.213Z,2.22
2023-02-11T09:01:47.777Z,2.50
2023-02-11T09:04:15.152Z,1.88
2023-02-11T09:06:42.390Z,2.17
2023-02-11T09:09:09.606Z,2.22
2023-02-11T09:11:37.002Z,2.22
2023-02-11T09:14:04.228Z,2.13
2023-02-11T09:16:31.785Z,1.88
2023-02-11T09:18:59.125Z,2.38
2023-02-11T09:21:26.465Z,3.30
2023-02-11T09:23:53.641Z,2.35
2023-02-11T09:26:20.970Z,1.88
2023-02-11T09:28:48.418Z,1.70
2023-02-11T09:31:15.819Z,2.38
2023-02-11T09:33:47.942Z,2.13
2023-02-11T09:36:15.293Z,2.03
2023-02-11T09:38:42.543Z,2.28
2023-02-11T09:41:10.043Z,2.33
2023-02-11T09:43:37.333Z,1.95
2023-02-11T09:46:04.654Z,2.03
2023-02-11T09:48:33.372Z,1.95
2023-02-11T09:51:00.614Z,2.00
2023-02-11T09:53:27.870Z,2.38
2023-02-11T09:55:59.705Z,1.65
2023-02-11T09:58:27.016Z,2.10
2023-02-11T10:00:54.214Z,1.88
2023-02-11T10:03:21.496Z,2.15
2023-02-11T10:05:48.855Z,2.25
2023-02-11T10:08:17.127Z,1.77
2023-02-11T10:10:44.373Z,1.88
2023-02-11T10:13:11.716Z,1.40
2023-02-11T10:15:38.954Z,1.55
2023-02-11T10:18:06.366Z,1.48
2023-02-11T10:20:33.556Z,1.70
2023-02-11T10:23:01.362Z,1.83
2023-02-11T10:25:28.621Z,1.33
2023-02-11T10:27:55.998Z,1.85
2023-02-11T10:30:23.316Z,1.70
2023-02-11T10:32:50.771Z,2.95
2023-02-11T10:35:18.400Z,1.45
2023-02-11T10:37:45.679Z,1.30
2023-02-11T10:40:12.938Z,1.85
2023-02-11T10:42:40.209Z,1.55
2023-02-11T10:45:07.508Z,1.50
2023-02-11T10:47:36.841Z,1.70
2023-02-11T10:50:04.010Z,2.03
2023-02-11T10:52:31.274Z,2.50
2023-02-11T10:54:58.596Z,1.50
2023-02-11T10:57:25.885Z,1.58
2023-02-11T10:59:53.685Z,2.00
2023-02-11T11:02:20.925Z,2.20
2023-02-11T11:04:48.107Z,1.88
2023-02-11T11:07:15.427Z,1.77
2023-02-11T11:09:42.706Z,1.90
2023-02-11T11:12:09.915Z,2.13
2023-02-11T11:14:37.230Z,1.92
2023-02-11T11:17:04.458Z,1.92
2023-02-11T11:19:31.767Z,1.42
2023-02-11T11:21:59.346Z,1.85
2023-02-11T11:24:27.932Z,1.67
2023-02-11T11:26:55.184Z,1.67
2023-02-11T11:29:22.374Z,1.80
2023-02-11T11:31:49.736Z,1.33
2023-02-11T11:34:16.996Z,1.42
2023-02-11T11:36:44.196Z,1.52
2023-02-11T11:39:11.453Z,3.40
2023-02-11T11:41:38.673Z,1.77
2023-02-11T11:44:05.944Z,1.88
2023-02-11T11:46:33.279Z,1.63
2023-02-11T11:49:00.547Z,1.25
2023-02-11T11:51:27.787Z,1.55
2023-02-11T11:53:55.441Z,1.60
2023-02-11T11:56:22.706Z,1.70
2023-02-11T11:58:50.005Z,2.72
2023-02-11T12:01:17.259Z,2.47
2023-02-11T12:03:45.077Z,1.45
2023-02-11T12:06:12.321Z,2.20
2023-02-11T12:08:39.684Z,1.88
2023-02-11T12:11:06.937Z,2.22
2023-02-11T12:13:34.211Z,2.58
2023-02-11T12:16:01.522Z,3.03
2023-02-11T12:18:29.709Z,3.58
2023-02-11T12:20:56.987Z,2.40
2023-02-11T12:23:24.203Z,2.75
2023-02-11T12:25:51.584Z,2.47
2023-02-11T12:28:18.978Z,2.20
2023-02-11T12:30:46.365Z,1.60
2023-02-11T12:33:13.697Z,1.90
2023-02-11T12:35:41.061Z,1.98
2023-02-11T12:38:08.494Z,1.85
2023-02-11T12:40:35.738Z,1.58
2023-02-11T12:43:18.299Z,1.80
2023-02-11T12:45:45.600Z,2.05
2023-02-11T12:48:13.006Z,2.13
2023-02-11T12:50:40.319Z,1.70
2023-02-11T12:53:07.538Z,1.90
2023-02-11T12:55:37.226Z,1.80
2023-02-11T12:58:04.522Z,1.95
2023-02-11T13:00:31.811Z,2.63
2023-02-11T13:02:59.051Z,2.38
2023-02-11T13:05:26.388Z,1.95
2023-02-11T13:07:53.588Z,1.73
2023-02-11T13:10:20.845Z,1.88
2023-02-11T13:13:06.963Z,1.42
2023-02-11T13:15:34.268Z,2.80
2023-02-11T13:18:01.612Z,1.90
2023-02-11T13:20:28.889Z,2.17
2023-02-11T13:22:57.289Z,2.78
2023-02-11T13:25:24.552Z,2.13
2023-02-11T13:27:51.812Z,2.38
2023-02-11T13:30:21.620Z,2.55
2023-02-11T13:32:48.877Z,2.42
2023-02-11T13:35:16.105Z,2.78
2023-02-11T13:37:43.439Z,2.03
2023-02-11T13:40:10.737Z,2.20
2023-02-11T13:42:38.074Z,2.38
2023-02-11T13:45:05.288Z,1.80
2023-02-11T13:47:32.543Z,3.10
2023-02-11T13:49:59.879Z,1.90
2023-02-11T13:52:27.231Z,1.88
2023-02-11T13:54:54.434Z,2.13
2023-02-11T13:57:21.762Z,2.40
2023-02-11T13:59:48.984Z,2.95
2023-02-11T14:02:35.110Z,2.25
2023-02-11T14:05:21.301Z,1.77
2023-02-11T14:08:07.310Z,2.60
2023-02-11T14:10:34.588Z,2.35
2023-02-11T14:13:01.785Z,2.42
2023-02-11T14:15:29.356Z,2.45
2023-02-11T14:17:56.622Z,2.70
2023-02-11T14:20:23.872Z,2.10
2023-02-11T14:22:51.057Z,2.85
2023-02-11T14:25:18.338Z,2.72
2023-02-11T14:27:45.513Z,3.20
2023-02-11T14:30:12.960Z,3.80
2023-02-11T14:32:40.984Z,2.65
2023-02-11T14:35:08.300Z,2.70
2023-02-11T14:37:35.546Z,3.72
2023-02-11T14:40:02.812Z,2.80
2023-02-11T14:42:30.991Z,2.83
2023-02-11T14:44:58.391Z,3.05
2023-02-11T14:47:25.667Z,4.53
2023-02-11T14:49:52.963Z,4.07
2023-02-11T14:52:20.221Z,3.20
2023-02-11T14:54:47.457Z,2.75
2023-02-11T14:57:14.739Z,2.70
2023-02-11T14:59:42.137Z,3.05
2023-02-11T15:02:09.695Z,2.88
2023-02-11T15:04:37.866Z,3.55
2023-02-11T15:07:05.101Z,4.05
2023-02-11T15:09:32.388Z,3.65
2023-02-11T15:11:59.619Z,3.20
2023-02-11T15:14:26.913Z,4.35
2023-02-11T15:16:54.202Z,3.22
2023-02-11T15:19:21.443Z,4.22
2023-02-11T15:21:48.775Z,2.72
2023-02-11T15:24:16.210Z,2.78
2023-02-11T15:26:43.381Z,3.00
2023-02-11T15:29:10.688Z,3.45
2023-02-11T15:31:37.986Z,3.85
2023-02-11T15:34:05.260Z,3.45
2023-02-11T15:36:33.240Z,3.22
2023-02-11T15:39:00.448Z,4.00
2023-02-11T15:41:27.696Z,2.95
2023-02-11T15:43:54.978Z,2.78
2023-02-11T15:46:22.335Z,2.90
2023-02-11T15:48:49.593Z,3.47
2023-02-11T15:51:16.905Z,3.33
2023-02-11T15:53:44.276Z,3.10
2023-02-11T15:56:11.521Z,3.60
2023-02-11T15:58:38.800Z,4.45
2023-02-11T16:01:06.828Z,3.13
2023-02-11T16:03:34.548Z,3.10
2023-02-11T16:06:08.151Z,3.17
2023-02-11T16:08:37.648Z,3.17
2023-02-11T16:11:08.925Z,3.45
2023-02-11T16:13:36.161Z,4.30
2023-02-11T16:16:04.650Z,3.97
2023-02-11T16:18:38.436Z,3.53
2023-02-11T16:21:06.388Z,3.35
2023-02-11T16:23:33.662Z,3.90
2023-02-11T16:26:00.960Z,3.55
2023-02-11T16:28:28.327Z,4.05
2023-02-11T16:30:55.884Z,3.67
2023-02-11T16:33:23.154Z,3.55
2023-02-11T16:35:50.462Z,3.17
2023-02-11T16:38:17.716Z,3.22
2023-02-11T16:40:49.063Z,3.38
2023-02-11T16:43:16.563Z,4.00
2023-02-11T16:45:43.821Z,3.67
2023-02-11T16:48:11.073Z,3.55
2023-02-11T16:50:38.297Z,4.68
2023-02-11T16:53:06.517Z,4.03
2023-02-11T16:55:34.936Z,3.92
2023-02-11T16:58:02.351Z,3.25
2023-02-11T17:00:30.106Z,5.68
2023-02-11T17:02:57.375Z,3.78
2023-02-11T17:05:25.942Z,4.07
2023-02-11T17:07:53.270Z,3.60
2023-02-11T17:10:20.499Z,3.20
2023-02-11T17:12:48.138Z,3.80
2023-02-11T17:15:15.536Z,3.60
2023-02-11T17:17:42.822Z,3.67
2023-02-11T17:20:09.995Z,3.42
2023-02-11T17:22:37.259Z,3.58
2023-02-11T17:25:04.502Z,3.88
2023-02-11T17:27:31.829Z,2.88
2023-02-11T17:29:59.051Z,3.40
2023-02-11T17:32:26.303Z,4.72
2023-02-11T17:34:53.646Z,3.03
2023-02-11T17:37:20.905Z,3.72
2023-02-11T17:39:48.057Z,3.00
2023-02-11T17:42:15.275Z,3.60
2023-02-11T17:44:42.512Z,3.40
2023-02-11T17:47:09.777Z,3.92
2023-02-11T17:49:36.939Z,3.72
2023-02-11T17:52:04.112Z,3.10
2023-02-11T17:54:31.362Z,4.90
2023-02-11T17:56:58.756Z,4.32
2023-02-11T17:59:26.579Z,4.20
2023-02-11T18:01:53.762Z,3.60
2023-02-11T18:04:21.157Z,3.58
2023-02-11T18:06:48.491Z,3.67
2023-02-11T18:09:15.740Z,2.78
2023-02-11T18:11:42.984Z,2.63
2023-02-11T18:14:10.408Z,3.90
2023-02-11T18:16:39.394Z,4.78
2023-02-11T18:19:07.552Z,4.32
2023-02-11T18:21:34.857Z,5.82
2023-02-11T18:24:06.385Z,6.68
2023-02-11T18:26:34.391Z,5.55
2023-02-11T18:29:01.642Z,6.25
2023-02-11T18:31:29.007Z,5.70
2023-02-11T18:33:56.259Z,6.18
2023-02-11T18:36:23.486Z,5.50
2023-02-11T18:38:52.653Z,4.68
2023-02-11T18:41:20.018Z,5.28
2023-02-11T18:43:47.300Z,4.93
2023-02-11T18:46:14.661Z,5.60
2023-02-11T18:48:41.870Z,4.65
2023-02-11T18:51:09.145Z,4.45
2023-02-11T18:53:36.469Z,5.53
2023-02-11T18:56:03.714Z,4.95
2023-02-11T18:58:30.941Z,5.78
2023-02-11T19:00:58.290Z,4.97
2023-02-11T19:03:25.615Z,6.43
2023-02-11T19:05:54.649Z,7.50
2023-02-11T19:08:21.964Z,6.05
2023-02-11T19:10:49.995Z,7.07
2023-02-11T19:13:17.240Z,6.00
2023-02-11T19:15:44.539Z,6.03
2023-02-11T19:18:11.742Z,6.10
2023-02-11T19:20:39.067Z,6.07
2023-02-11T19:23:06.308Z,5.70
2023-02-11T19:25:33.599Z,5.95
2023-02-11T19:28:00.879Z,6.65
2023-02-11T19:30:28.171Z,6.40
2023-02-11T19:32:57.190Z,7.50
2023-02-11T19:35:24.499Z,6.32
2023-02-11T19:37:51.683Z,6.47
2023-02-11T19:40:19.262Z,6.75
2023-02-11T19:42:46.486Z,6.03
2023-02-11T19:45:13.840Z,6.93
2023-02-11T19:47:41.086Z,6.63
2023-02-11T19:50:08.626Z,7.60
2023-02-11T19:52:35.838Z,8.75
2023-02-11T19:55:03.077Z,9.70
2023-02-11T19:57:30.268Z,10.57
2023-02-11T19:59:57.485Z,9.38
2023-02-11T20:02:24.833Z,9.65
2023-02-11T20:04:52.171Z,9.35
2023-02-11T20:07:19.401Z,7.40
2023-02-11T20:09:46.633Z,8.52
2023-02-11T20:12:13.879Z,8.40
2023-02-11T20:14:41.139Z,8.18
2023-02-11T20:17:08.307Z,9.35
2023-02-11T20:19:35.543Z,8.52
2023-02-11T20:22:02.766Z,7.63
2023-02-11T20:24:30.005Z,6.65
2023-02-11T20:26:57.226Z,6.50
2023-02-11T20:29:24.536Z,7.05
2023-02-11T20:31:51.889Z,8.23
2023-02-11T20:34:19.317Z,8.55
2023-02-11T20:36:52.217Z,6.13
2023-02-11T20:39:21.859Z,6.28
2023-02-11T20:41:49.229Z,6.30
2023-02-11T20:44:16.584Z,6.38
2023-02-11T20:46:44.014Z,6.68
2023-02-11T20:49:11.372Z,12.70
2023-02-11T20:51:38.849Z,10.07
2023-02-11T20:54:09.026Z,11.50
2023-02-11T20:56:36.656Z,9.90
2023-02-11T20:59:04.104Z,10.10
2023-02-11T21:01:31.461Z,10.32
2023-02-11T21:03:58.761Z,9.80
2023-02-11T21:06:26.055Z,9.80
2023-02-11T21:08:53.281Z,10.20
2023-02-11T21:11:20.696Z,10.52
2023-02-11T21:13:48.728Z,10.68
2023-02-11T21:16:16.027Z,11.02
2023-02-11T21:18:43.350Z,10.40
2023-02-11T21:21:10.680Z,10.93
2023-02-11T21:23:39.619Z,11.90
2023-02-11T21:26:06.981Z,12.88
2023-02-11T21:28:34.275Z,14.43
2023-02-11T21:31:01.664Z,12.48
2023-02-11T21:33:29.028Z,13.95
2023-02-11T21:35:56.522Z,12.45
2023-02-11T21:38:24.042Z,9.05
2023-02-11T21:40:51.222Z,6.65
2023-02-11T21:43:18.445Z,6.57
2023-02-11T21:45:45.677Z,6.03
2023-02-11T21:48:13.018Z,6.55
2023-02-11T21:50:40.313Z,6.18
2023-02-11T21:53:07.615Z,6.63
2023-02-11T21:55:34.943Z,6.95
2023-02-11T21:58:02.272Z,6.65
2023-02-11T22:00:29.533Z,6.97
2023-02-11T22:02:56.831Z,7.70
2023-02-11T22:05:24.119Z,8.38
2023-02-11T22:07:51.400Z,13.32
2023-02-11T22:10:18.631Z,19.02
2023-02-11T22:12:45.925Z,11.95
2023-02-11T22:15:13.119Z,8.93
2023-02-11T22:17:40.383Z,9.80
2023-02-11T22:20:07.549Z,14.45
2023-02-11T22:22:35.376Z,12.52
2023-02-11T22:25:03.352Z,10.80
2023-02-11T22:27:30.612Z,10.98
2023-02-11T22:29:57.892Z,11.82
2023-02-11T22:32:25.148Z,11.30
2023-02-11T22:34:53.518Z,11.80
2023-02-11T22:37:20.917Z,12.38
2023-02-11T22:39:48.112Z,14.13
2023-02-11T22:42:15.482Z,13.15
2023-02-11T22:44:42.765Z,13.25
2023-02-11T22:47:10.152Z,10.77
2023-02-11T22:49:37.546Z,9.55
2023-02-11T22:52:04.808Z,10.38
2023-02-11T22:54:32.007Z,9.88
2023-02-11T22:56:59.275Z,9.80
2023-02-11T22:59:26.457Z,8.15
2023-02-11T23:01:53.849Z,8.82
2023-02-11T23:04:21.186Z,7.97
2023-02-11T23:06:49.405Z,8.55
2023-02-11T23:09:16.621Z,9.98
2023-02-11T23:11:44.164Z,9.43
2023-02-11T23:14:12.392Z,9.60
2023-02-11T23:16:39.893Z,9.40
2023-02-11T23:19:07.086Z,8.43
2023-02-11T23:21:34.426Z,7.93
2023-02-11T23:24:01.645Z,9.57
2023-02-11T23:26:28.966Z,12.35
2023-02-11T23:28:56.235Z,10.73
2023-02-11T23:31:23.784Z,11.77
2023-02-11T23:33:51.024Z,11.70
2023-02-11T23:36:18.270Z,11.15
2023-02-11T23:38:45.461Z,11.50
2023-02-11T23:41:12.658Z,11.70
2023-02-11T23:43:39.851Z,12.20
2023-02-11T23:46:07.226Z,13.27
2023-02-11T23:48:36.090Z,10.18
2023-02-11T23:51:03.392Z,11.68
2023-02-11T23:53:30.567Z,12.80
2023-02-11T23:55:57.809Z,12.13
2023-02-11T23:58:24.984Z,12.63
